createdAt,value
2018-07-01T00:00:54.517Z,65.78
2018-07-01T00:03:23.687Z,65.25
2018-07-01T00:05:52.429Z,65.71
2018-07-01T00:08:21.206Z,65.52
2018-07-01T00:10:49.992Z,65.43
2018-07-01T00:13:18.979Z,65.38
2018-07-01T00:15:47.706Z,65.30
2018-07-01T00:18:16.382Z,65.98
2018-07-01T00:20:45.115Z,66.18
2018-07-01T00:23:13.813Z,65.52
2018-07-01T00:25:42.517Z,66.24
2018-07-01T00:28:11.638Z,66.01
2018-07-01T00:30:40.393Z,65.85
2018-07-01T00:33:09.117Z,65.66
2018-07-01T00:35:38.247Z,65.67
2018-07-01T00:38:07.053Z,65.63
2018-07-01T00:40:35.830Z,66.69
2018-07-01T00:43:04.652Z,66.24
2018-07-01T00:45:39.761Z,65.96
2018-07-01T00:48:08.970Z,67.63
2018-07-01T00:50:37.773Z,66.50
2018-07-01T00:53:06.538Z,66.13
2018-07-01T00:55:35.249Z,66.28
2018-07-01T00:58:04.091Z,66.91
2018-07-01T01:00:34.766Z,67.20
2018-07-01T01:03:04.337Z,66.55
2018-07-01T01:05:33.777Z,67.72
2018-07-01T01:08:02.529Z,66.41
2018-07-01T01:10:31.271Z,67.45
2018-07-01T01:13:00.315Z,66.96
2018-07-01T01:15:29.042Z,66.95
2018-07-01T01:17:57.810Z,66.11
2018-07-01T01:20:26.629Z,66.29
2018-07-01T01:22:55.416Z,66.14
2018-07-01T01:25:24.171Z,65.66
2018-07-01T01:27:52.851Z,66.27
2018-07-01T01:30:21.979Z,66.03
2018-07-01T01:32:50.723Z,66.27
2018-07-01T01:35:19.518Z,67.63
2018-07-01T01:37:48.353Z,67.67
2018-07-01T01:40:19.691Z,67.95
2018-07-01T01:42:54.379Z,69.17
2018-07-01T01:45:29.513Z,69.50
2018-07-01T01:48:02.670Z,69.85
2018-07-01T01:51:09.358Z,69.24
2018-07-01T01:53:56.674Z,69.46
2018-07-01T01:56:39.560Z,69.79
2018-07-01T01:59:16.583Z,70.19
2018-07-01T02:01:51.618Z,70.19
2018-07-01T02:04:38.815Z,70.30
2018-07-01T02:07:12.115Z,71.27
2018-07-01T02:09:40.934Z,71.21
2018-07-01T02:12:11.959Z,70.53
2018-07-01T02:14:44.680Z,70.23
2018-07-01T02:17:17.942Z,69.45
2018-07-01T02:19:47.178Z,69.99
2018-07-01T02:22:18.809Z,69.30
2018-07-01T02:24:49.322Z,69.38
2018-07-01T02:27:18.151Z,68.12
2018-07-01T02:29:46.940Z,67.97
2018-07-01T02:32:15.720Z,66.57
2018-07-01T02:34:44.484Z,65.90
2018-07-01T02:37:13.190Z,66.23
2018-07-01T02:39:42.278Z,64.46
2018-07-01T02:42:11.095Z,64.53
2018-07-01T02:44:39.790Z,63.04
2018-07-01T02:47:08.923Z,63.87
2018-07-01T02:49:37.639Z,62.22
2018-07-01T02:52:06.429Z,61.89
2018-07-01T02:54:35.178Z,61.59
2018-07-01T02:57:03.875Z,61.11
2018-07-01T02:59:32.643Z,60.13
2018-07-01T03:02:01.446Z,60.12
2018-07-01T03:04:30.172Z,59.92
2018-07-01T03:06:58.958Z,57.94
2018-07-01T03:09:27.782Z,58.19
2018-07-01T03:11:56.522Z,56.29
2018-07-01T03:14:25.297Z,55.52
2018-07-01T03:16:54.017Z,54.73
2018-07-01T03:19:22.761Z,53.19
2018-07-01T03:21:51.469Z,53.12
2018-07-01T03:24:20.176Z,51.64
2018-07-01T03:26:48.875Z,50.54
2018-07-01T03:29:17.659Z,50.84
2018-07-01T03:31:46.386Z,49.21
2018-07-01T03:34:15.070Z,48.92
2018-07-01T03:36:43.825Z,49.47
2018-07-01T03:39:12.647Z,49.18
2018-07-01T03:41:41.394Z,48.60
2018-07-01T03:44:10.155Z,49.08
2018-07-01T03:46:38.979Z,48.43
2018-07-01T03:49:07.982Z,48.90
2018-07-01T03:51:36.794Z,47.68
2018-07-01T03:54:05.986Z,48.81
2018-07-01T03:56:34.954Z,47.65
2018-07-01T03:59:03.723Z,48.35
2018-07-01T04:01:32.515Z,47.88
2018-07-01T04:04:01.260Z,47.18
2018-07-01T04:06:30.007Z,48.37
2018-07-01T04:08:58.781Z,48.18
2018-07-01T04:11:27.534Z,47.73
2018-07-01T04:13:56.290Z,48.03
2018-07-01T04:16:25.051Z,48.37
2018-07-01T04:18:53.826Z,48.91
2018-07-01T04:21:22.550Z,48.84
2018-07-01T04:23:51.306Z,49.17
2018-07-01T04:26:20.063Z,49.41
2018-07-01T04:28:48.858Z,49.10
2018-07-01T04:31:17.960Z,49.27
2018-07-01T04:33:47.102Z,49.69
2018-07-01T04:36:15.878Z,49.83
2018-07-01T04:38:44.573Z,49.37
2018-07-01T04:41:13.310Z,48.38
2018-07-01T04:43:42.082Z,49.10
2018-07-01T04:46:10.798Z,48.07
2018-07-01T04:48:39.538Z,47.38
2018-07-01T04:51:08.388Z,47.28
2018-07-01T04:53:37.122Z,46.39
2018-07-01T04:56:05.946Z,43.92
2018-07-01T04:58:34.778Z,42.11
2018-07-01T05:01:03.900Z,41.00
2018-07-01T05:03:32.630Z,39.95
2018-07-01T05:06:01.318Z,38.93
2018-07-01T05:08:30.075Z,38.23
2018-07-01T05:10:58.870Z,37.72
2018-07-01T05:13:27.663Z,37.70
2018-07-01T05:15:56.951Z,36.70
2018-07-01T05:18:25.650Z,36.60
2018-07-01T05:20:54.393Z,35.99
2018-07-01T05:23:23.120Z,36.32
2018-07-01T05:25:51.885Z,36.82
2018-07-01T05:28:20.594Z,35.23
2018-07-01T05:30:49.379Z,34.99
2018-07-01T05:33:18.479Z,34.49
2018-07-01T05:35:47.299Z,34.12
2018-07-01T05:38:16.114Z,31.33
2018-07-01T05:40:44.886Z,32.50
2018-07-01T05:43:13.712Z,34.20
2018-07-01T05:45:42.816Z,34.22
2018-07-01T05:48:11.585Z,33.75
2018-07-01T05:50:40.313Z,34.32
2018-07-01T05:53:09.035Z,32.76
2018-07-01T05:55:37.814Z,32.81
2018-07-01T05:58:06.922Z,33.92
2018-07-01T06:00:35.874Z,33.68
2018-07-01T06:03:05.067Z,34.94
2018-07-01T06:05:33.770Z,35.34
2018-07-01T06:08:02.663Z,34.88
2018-07-01T06:10:31.409Z,35.89
2018-07-01T06:13:00.218Z,36.80
2018-07-01T06:15:28.970Z,38.72
2018-07-01T06:17:57.690Z,39.21
2018-07-01T06:20:26.431Z,39.07
2018-07-01T06:22:55.245Z,39.47
2018-07-01T06:25:24.194Z,40.21
2018-07-01T06:27:52.969Z,41.95
2018-07-01T06:30:21.862Z,42.10
2018-07-01T06:32:50.598Z,42.00
2018-07-01T06:35:19.937Z,42.85
2018-07-01T06:37:48.710Z,43.68
2018-07-01T06:40:17.441Z,43.29
2018-07-01T06:42:46.274Z,43.91
2018-07-01T06:45:15.008Z,43.65
2018-07-01T06:47:43.812Z,44.03
2018-07-01T06:50:12.954Z,44.04
2018-07-01T06:52:41.686Z,44.58
2018-07-01T06:55:10.463Z,44.68
2018-07-01T06:57:39.207Z,46.29
2018-07-01T07:00:08.088Z,45.62
2018-07-01T07:02:37.238Z,46.67
2018-07-01T07:05:06.100Z,46.67
2018-07-01T07:07:34.934Z,46.77
2018-07-01T07:10:03.790Z,46.87
2018-07-01T07:12:33.292Z,47.62
2018-07-01T07:15:02.079Z,47.92
2018-07-01T07:17:30.838Z,48.05
2018-07-01T07:19:59.624Z,48.00
2018-07-01T07:22:28.395Z,47.32
2018-07-01T07:24:57.106Z,47.31
2018-07-01T07:27:25.885Z,47.21
2018-07-01T07:29:54.587Z,47.93
2018-07-01T07:32:23.281Z,47.14
2018-07-01T07:34:52.021Z,47.31
2018-07-01T07:37:20.794Z,47.45
2018-07-01T07:39:49.516Z,46.67
2018-07-01T07:42:18.264Z,47.51
2018-07-01T07:44:47.011Z,48.55
2018-07-01T07:47:15.962Z,48.14
2018-07-01T07:49:44.812Z,47.51
2018-07-01T07:52:13.589Z,48.05
2018-07-01T07:54:42.604Z,47.23
2018-07-01T07:57:11.353Z,47.11
2018-07-01T07:59:40.073Z,47.41
2018-07-01T08:02:09.131Z,47.99
2018-07-01T08:04:37.945Z,46.91
2018-07-01T08:07:06.879Z,47.37
2018-07-01T08:09:35.679Z,47.14
2018-07-01T08:12:04.563Z,47.01
2018-07-01T08:14:33.284Z,46.62
2018-07-01T08:17:02.069Z,47.70
2018-07-01T08:19:31.499Z,47.50
2018-07-01T08:22:00.298Z,46.36
2018-07-01T08:24:29.054Z,46.68
2018-07-01T08:26:57.804Z,45.99
2018-07-01T08:29:26.505Z,46.18
2018-07-01T08:31:55.263Z,45.45
2018-07-01T08:34:23.958Z,45.82
2018-07-01T08:36:53.077Z,45.44
2018-07-01T08:39:21.837Z,45.26
2018-07-01T08:42:04.145Z,45.58
2018-07-01T08:44:32.889Z,46.58
2018-07-01T08:47:01.666Z,45.89
2018-07-01T08:49:30.403Z,46.47
2018-07-01T08:51:59.886Z,45.28
2018-07-01T08:54:28.662Z,46.51
2018-07-01T08:56:57.426Z,46.39
2018-07-01T08:59:26.194Z,46.54
2018-07-01T09:01:54.953Z,45.21
2018-07-01T09:04:23.756Z,45.58
2018-07-01T09:06:52.492Z,46.53
2018-07-01T09:09:21.624Z,46.11
2018-07-01T09:11:50.435Z,45.93
2018-07-01T09:14:19.309Z,46.14
2018-07-01T09:16:48.090Z,46.25
2018-07-01T09:19:17.013Z,46.42
2018-07-01T09:21:45.796Z,44.89
2018-07-01T09:24:14.579Z,45.68
2018-07-01T09:26:43.446Z,45.93
2018-07-01T09:29:12.470Z,46.37
2018-07-01T09:31:41.198Z,44.62
2018-07-01T09:34:09.914Z,45.87
2018-07-01T09:36:38.698Z,45.24
2018-07-01T09:39:09.672Z,45.55
2018-07-01T09:41:38.455Z,45.56
2018-07-01T09:44:07.352Z,45.55
2018-07-01T09:46:36.761Z,44.59
2018-07-01T09:49:05.636Z,44.26
2018-07-01T09:51:34.714Z,46.13
2018-07-01T09:54:03.642Z,44.69
2018-07-01T09:56:32.432Z,44.30
2018-07-01T09:59:01.204Z,43.75
2018-07-01T10:01:31.025Z,43.18
2018-07-01T10:03:59.805Z,43.99
2018-07-01T10:06:28.987Z,43.87
2018-07-01T10:08:58.488Z,43.86
2018-07-01T10:11:27.582Z,43.30
2018-07-01T10:13:56.475Z,42.18
2018-07-01T10:16:25.228Z,42.88
2018-07-01T10:18:54.149Z,42.80
2018-07-01T10:21:23.013Z,43.07
2018-07-01T10:23:51.729Z,43.44
2018-07-01T10:26:20.477Z,43.34
2018-07-01T10:29:10.339Z,42.77
2018-07-01T10:31:39.740Z,43.00
2018-07-01T10:34:10.057Z,43.38
2018-07-01T10:36:38.881Z,42.86
2018-07-01T10:39:11.934Z,43.44
2018-07-01T10:41:40.767Z,42.73
2018-07-01T10:44:09.897Z,43.67
2018-07-01T10:46:39.018Z,42.82
2018-07-01T10:49:07.836Z,43.37
2018-07-01T10:51:36.697Z,43.01
2018-07-01T10:54:05.858Z,42.16
2018-07-01T10:56:34.657Z,43.11
2018-07-01T10:59:03.386Z,42.46
2018-07-01T11:01:32.133Z,42.00
2018-07-01T11:04:01.199Z,42.08
2018-07-01T11:06:30.319Z,43.07
2018-07-01T11:08:59.121Z,42.64
2018-07-01T11:11:27.833Z,43.23
2018-07-01T11:13:56.610Z,43.05
2018-07-01T11:16:25.752Z,42.45
2018-07-01T11:18:54.538Z,42.75
2018-07-01T11:21:23.283Z,41.89
2018-07-01T11:23:52.106Z,41.57
2018-07-01T11:26:20.852Z,41.73
2018-07-01T11:28:49.656Z,41.57
2018-07-01T11:31:18.437Z,41.26
2018-07-01T11:33:47.162Z,42.12
2018-07-01T11:36:16.026Z,40.85
2018-07-01T11:38:44.809Z,41.68
2018-07-01T11:41:13.530Z,41.33
2018-07-01T11:43:42.279Z,41.70
2018-07-01T11:46:11.076Z,41.85
2018-07-01T11:48:40.255Z,41.74
2018-07-01T11:51:09.011Z,41.24
2018-07-01T11:53:37.745Z,41.07
2018-07-01T11:56:06.957Z,40.55
2018-07-01T11:58:35.683Z,41.80
2018-07-01T12:01:04.464Z,41.44
2018-07-01T12:03:33.179Z,40.86
2018-07-01T12:06:01.926Z,40.95
2018-07-01T12:08:30.645Z,40.59
2018-07-01T12:10:59.396Z,40.44
2018-07-01T12:13:28.154Z,41.08
2018-07-01T12:15:56.879Z,41.05
2018-07-01T12:18:25.584Z,40.62
2018-07-01T12:20:54.288Z,40.16
2018-07-01T12:23:23.048Z,40.56
2018-07-01T12:25:52.023Z,40.62
2018-07-01T12:28:20.746Z,40.17
2018-07-01T12:30:49.562Z,41.27
2018-07-01T12:33:18.292Z,39.80
2018-07-01T12:35:47.016Z,39.61
2018-07-01T12:38:16.156Z,40.70
2018-07-01T12:40:44.888Z,40.22
2018-07-01T12:43:13.696Z,39.26
2018-07-01T12:45:42.515Z,40.39
2018-07-01T12:48:11.267Z,40.07
2018-07-01T12:50:40.082Z,39.98
2018-07-01T12:53:09.292Z,39.97
2018-07-01T12:55:38.066Z,39.48
2018-07-01T12:58:07.268Z,39.67
2018-07-01T13:00:35.974Z,39.82
2018-07-01T13:03:04.750Z,39.94
2018-07-01T13:05:33.502Z,39.60
2018-07-01T13:08:02.332Z,38.62
2018-07-01T13:10:31.081Z,39.31
2018-07-01T13:12:59.821Z,39.28
2018-07-01T13:15:28.582Z,39.04
2018-07-01T13:17:57.713Z,39.00
2018-07-01T13:20:26.820Z,39.91
2018-07-01T13:22:55.588Z,39.21
2018-07-01T13:25:24.308Z,39.22
2018-07-01T13:27:53.020Z,39.64
2018-07-01T13:30:21.758Z,39.10
2018-07-01T13:32:56.900Z,39.05
2018-07-01T13:35:25.632Z,38.22
2018-07-01T13:37:54.958Z,38.32
2018-07-01T13:40:23.721Z,38.30
2018-07-01T13:42:52.469Z,38.94
2018-07-01T13:45:21.478Z,38.93
2018-07-01T13:47:50.226Z,39.36
2018-07-01T13:50:18.938Z,39.65
2018-07-01T13:52:47.669Z,39.56
2018-07-01T13:55:16.462Z,39.72
2018-07-01T13:57:45.225Z,40.31
2018-07-01T14:00:14.055Z,40.45
2018-07-01T14:02:43.208Z,41.40
2018-07-01T14:05:11.887Z,40.32
2018-07-01T14:07:40.652Z,40.29
2018-07-01T14:10:09.474Z,40.56
2018-07-01T14:12:38.269Z,39.93
2018-07-01T14:15:07.090Z,40.92
2018-07-01T14:17:35.897Z,39.98
2018-07-01T14:20:05.332Z,40.43
2018-07-01T14:22:34.035Z,40.17
2018-07-01T14:25:02.803Z,40.40
2018-07-01T14:27:31.576Z,41.15
2018-07-01T14:30:00.338Z,41.67
2018-07-01T14:32:29.061Z,40.58
2018-07-01T14:34:57.807Z,40.89
2018-07-01T14:37:26.621Z,39.94
2018-07-01T14:39:55.359Z,40.81
2018-07-01T14:42:24.135Z,39.98
2018-07-01T14:44:53.156Z,39.94
2018-07-01T14:47:21.891Z,39.89
2018-07-01T14:49:50.653Z,40.23
2018-07-01T14:52:19.497Z,39.57
2018-07-01T14:54:48.400Z,40.03
2018-07-01T14:57:17.344Z,39.69
2018-07-01T14:59:46.113Z,39.92
2018-07-01T15:02:14.857Z,40.22
2018-07-01T15:04:43.595Z,39.40
2018-07-01T15:07:12.388Z,40.50
2018-07-01T15:09:41.139Z,40.53
2018-07-01T15:12:09.900Z,40.37
2018-07-01T15:14:39.235Z,41.36
2018-07-01T15:17:08.316Z,40.32
2018-07-01T15:19:37.128Z,39.38
2018-07-01T15:22:05.947Z,40.35
2018-07-01T15:24:34.780Z,40.48
2018-07-01T15:27:03.922Z,39.63
2018-07-01T15:29:32.605Z,39.84
2018-07-01T15:32:01.345Z,39.51
2018-07-01T15:34:30.445Z,39.81
2018-07-01T15:36:59.236Z,39.98
2018-07-01T15:39:27.928Z,40.85
2018-07-01T15:41:56.649Z,40.53
2018-07-01T15:44:25.401Z,40.31
2018-07-01T15:46:54.140Z,40.50
2018-07-01T15:49:22.865Z,41.95
2018-07-01T15:51:51.706Z,41.31
2018-07-01T15:54:20.426Z,40.77
2018-07-01T15:56:49.184Z,41.34
2018-07-01T15:59:18.206Z,40.88
2018-07-01T16:01:46.948Z,40.71
2018-07-01T16:04:15.769Z,40.82
2018-07-01T16:06:44.542Z,41.85
2018-07-01T16:09:13.393Z,41.21
2018-07-01T16:11:42.284Z,41.59
2018-07-01T16:14:11.158Z,42.94
2018-07-01T16:16:39.893Z,42.60
2018-07-01T16:19:08.759Z,43.28
2018-07-01T16:21:37.527Z,43.14
2018-07-01T16:24:06.691Z,43.23
2018-07-01T16:26:41.011Z,43.26
2018-07-01T16:29:10.241Z,42.46
2018-07-01T16:31:39.323Z,43.43
2018-07-01T16:34:08.125Z,43.57
2018-07-01T16:36:36.886Z,43.30
2018-07-01T16:39:09.459Z,43.83
2018-07-01T16:41:38.162Z,44.00
2018-07-01T16:44:07.988Z,43.37
2018-07-01T16:46:37.645Z,43.50
2018-07-01T16:49:06.435Z,44.55
2018-07-01T16:51:35.254Z,44.14
2018-07-01T16:54:04.385Z,45.53
2018-07-01T16:56:33.114Z,44.38
2018-07-01T16:59:01.932Z,44.78
2018-07-01T17:01:30.662Z,45.27
2018-07-01T17:03:59.350Z,45.95
2018-07-01T17:06:28.095Z,45.78
2018-07-01T17:08:56.811Z,46.36
2018-07-01T17:11:25.623Z,46.33
2018-07-01T17:13:54.666Z,45.30
2018-07-01T17:16:23.460Z,45.72
2018-07-01T17:18:52.212Z,45.63
2018-07-01T17:21:20.931Z,46.54
2018-07-01T17:23:49.662Z,46.88
2018-07-01T17:26:18.406Z,46.67
2018-07-01T17:28:47.629Z,46.56
2018-07-01T17:31:21.519Z,46.84
2018-07-01T17:33:50.267Z,47.11
2018-07-01T17:36:19.086Z,47.16
2018-07-01T17:38:47.811Z,47.04
2018-07-01T17:41:16.546Z,46.97
2018-07-01T17:43:45.319Z,47.68
2018-07-01T17:46:14.081Z,47.36
2018-07-01T17:48:42.809Z,47.35
2018-07-01T17:51:11.601Z,48.50
2018-07-01T17:54:01.429Z,49.02
2018-07-01T17:56:30.225Z,47.75
2018-07-01T17:58:59.881Z,48.22
2018-07-01T18:01:28.634Z,48.57
2018-07-01T18:03:57.384Z,49.29
2018-07-01T18:06:26.239Z,49.80
2018-07-01T18:08:55.018Z,49.93
2018-07-01T18:11:23.802Z,49.30
2018-07-01T18:13:52.556Z,49.93
2018-07-01T18:16:21.354Z,51.00
2018-07-01T18:18:50.125Z,50.60
2018-07-01T18:21:20.254Z,51.97
2018-07-01T18:24:19.491Z,52.38
2018-07-01T18:26:16.970Z,52.07
2018-07-01T18:28:55.767Z,52.57
2018-07-01T18:31:14.869Z,51.55
2018-07-01T18:33:43.588Z,51.64
2018-07-01T18:36:12.393Z,52.44
2018-07-01T18:38:41.333Z,52.00
2018-07-01T18:41:10.092Z,52.25
2018-07-01T18:43:38.916Z,54.70
2018-07-01T18:46:07.795Z,58.75
2018-07-01T18:48:36.797Z,62.85
2018-07-01T18:51:05.607Z,65.21
2018-07-01T18:53:34.308Z,66.89
2018-07-01T18:56:03.105Z,67.25
2018-07-01T18:58:38.286Z,68.51
2018-07-01T19:01:07.210Z,70.13
2018-07-01T19:03:35.972Z,70.31
2018-07-01T19:06:05.262Z,70.48
2018-07-01T19:08:34.045Z,70.91
2018-07-01T19:11:03.245Z,71.50
2018-07-01T19:13:32.418Z,71.53
2018-07-01T19:16:01.845Z,72.04
2018-07-01T19:18:30.905Z,72.81
2018-07-01T19:20:59.822Z,72.38
2018-07-01T19:23:29.035Z,72.82
2018-07-01T19:25:58.034Z,72.33
2018-07-01T19:28:27.393Z,73.26
2018-07-01T19:30:56.173Z,72.36
2018-07-01T19:33:24.913Z,71.99
2018-07-01T19:35:53.582Z,71.97
2018-07-01T19:38:22.373Z,74.42
2018-07-01T19:40:51.153Z,75.70
2018-07-01T19:43:20.012Z,75.33
2018-07-01T19:45:48.913Z,76.42
2018-07-01T19:48:17.800Z,75.25
2018-07-01T19:50:46.709Z,75.97
2018-07-01T19:53:15.482Z,76.96
2018-07-01T19:55:44.254Z,76.88
2018-07-01T19:58:13.697Z,77.32
2018-07-01T20:00:42.533Z,77.32
2018-07-01T20:03:11.622Z,77.32
2018-07-01T20:05:40.426Z,76.85
2018-07-01T20:08:09.227Z,77.46
2018-07-01T20:10:37.980Z,76.18
2018-07-01T20:13:07.112Z,76.41
2018-07-01T20:15:36.073Z,76.32
2018-07-01T20:18:05.221Z,77.29
2018-07-01T20:20:33.968Z,77.69
2018-07-01T20:23:02.761Z,77.76
2018-07-01T20:25:31.597Z,76.83
2018-07-01T20:28:00.447Z,78.44
2018-07-01T20:30:29.273Z,78.00
2018-07-01T20:32:58.303Z,77.35
2018-07-01T20:35:28.737Z,76.07
2018-07-01T20:37:57.473Z,75.32
2018-07-01T20:40:26.528Z,74.54
2018-07-01T20:42:55.281Z,74.85
2018-07-01T20:45:24.117Z,75.70
2018-07-01T20:47:59.146Z,76.09
2018-07-01T20:50:28.004Z,75.68
2018-07-01T20:52:57.302Z,75.43
2018-07-01T20:55:29.455Z,75.89
2018-07-01T20:57:58.251Z,76.31
2018-07-01T21:00:27.077Z,75.67
2018-07-01T21:02:55.825Z,76.01
2018-07-01T21:05:24.670Z,75.43
2018-07-01T21:07:53.590Z,74.56
2018-07-01T21:10:22.326Z,75.69
2018-07-01T21:12:51.123Z,75.24
2018-07-01T21:15:19.868Z,76.45
2018-07-01T21:17:48.635Z,76.99
2018-07-01T21:20:17.562Z,76.29
2018-07-01T21:22:46.790Z,76.25
2018-07-01T21:25:15.536Z,75.68
2018-07-01T21:27:44.341Z,76.16
2018-07-01T21:30:13.293Z,76.43
2018-07-01T21:32:42.075Z,75.44
2018-07-01T21:35:11.284Z,76.53
2018-07-01T21:37:40.209Z,77.46
2018-07-01T21:40:09.141Z,77.81
2018-07-01T21:42:38.087Z,76.87
2018-07-01T21:45:07.714Z,77.57
2018-07-01T21:47:36.714Z,78.18
2018-07-01T21:50:06.204Z,78.07
2018-07-01T21:52:35.150Z,76.72
2018-07-01T21:55:04.182Z,77.30
2018-07-01T21:57:32.978Z,77.18
2018-07-01T22:00:01.950Z,76.92
2018-07-01T22:02:30.974Z,77.27
2018-07-01T22:04:59.722Z,76.04
2018-07-01T22:07:28.662Z,76.23
2018-07-01T22:09:57.401Z,76.33
2018-07-01T22:12:37.517Z,76.07
2018-07-01T22:16:16.273Z,76.50
2018-07-01T22:18:45.247Z,77.28
2018-07-01T22:21:14.234Z,76.67
2018-07-01T22:23:43.207Z,78.05
2018-07-01T22:26:12.117Z,77.96
2018-07-01T22:28:41.183Z,77.19
2018-07-01T22:31:10.171Z,78.38
2018-07-01T22:33:39.094Z,78.66
2018-07-01T22:36:08.371Z,80.48
2018-07-01T22:38:37.327Z,80.28
2018-07-01T22:41:06.243Z,77.67
2018-07-01T22:43:35.194Z,77.00
2018-07-01T22:46:04.152Z,77.75
2018-07-01T22:48:33.149Z,79.07
2018-07-01T22:51:02.069Z,77.54
2018-07-01T22:53:30.987Z,76.50
2018-07-01T22:55:59.729Z,77.43
2018-07-01T22:58:28.503Z,77.03
2018-07-01T23:00:57.482Z,78.36
2018-07-01T23:03:26.490Z,77.86
2018-07-01T23:05:55.406Z,77.26
2018-07-01T23:08:24.406Z,76.51
2018-07-01T23:10:53.358Z,76.49
2018-07-01T23:13:22.145Z,77.06
2018-07-01T23:15:51.069Z,77.99
2018-07-01T23:18:20.006Z,77.22
2018-07-01T23:20:48.781Z,80.21
2018-07-01T23:23:17.774Z,83.48
2018-07-01T23:25:46.762Z,84.46
2018-07-01T23:28:15.715Z,85.54
2018-07-01T23:30:44.657Z,86.52
2018-07-01T23:33:13.634Z,85.61
2018-07-01T23:35:42.574Z,86.72
2018-07-01T23:38:11.493Z,87.03
2018-07-01T23:40:40.454Z,86.92
2018-07-01T23:43:09.353Z,87.48
2018-07-01T23:45:38.282Z,87.25
2018-07-01T23:48:07.374Z,87.45
2018-07-01T23:50:36.181Z,87.47
2018-07-01T23:53:05.157Z,86.90
2018-07-01T23:55:34.065Z,86.54
2018-07-01T23:58:03.036Z,85.48
